オークランド の空港の天気 - METARとTAF

オークランド国際空港 ( NZAA / AKL ) - ニュージーランド オークランド|オークランド
飛行場実況気象(Metar)
観測時間06/24 21:30 NZST (06/24 09:30 UTC)
風向・風速東南東 3m/s
視程10km以上
天気現象
なし
気温10℃
湿度87%
気圧1020hPa
METARNZAA 240930Z AUTO 12006KT 9999 NCD 10/08 Q1020 NOSIG
過去の天気等 Google飛行場航空写真 Wunderground天気予報

過去48時間のMETAR

飛行場予報(TAF)
発表時間: 6/24 17:03 NZST (6/24 05:03 UTC)
予報対象時間: 24日18時 NZST ~ 25日18時 NZST
風向・風速南南東 6m/s
視程10km以上
少しの雲 雲底高度 610m
全天の8割程度の雲 雲底高度 1220m
TAF NZAA 240503Z 2406/2506 15012KT 9999 FEW020 BKN040